sensor_id;sensor_type;location;lat;lon;timestamp;temperature;humidity
41668;DHT22;27356;50.920;5.350;2023-06-10T00:02:21;21.50;89.70
41668;DHT22;27356;50.920;5.350;2023-06-10T00:04:46;21.50;89.70
41668;DHT22;27356;50.920;5.350;2023-06-10T00:07:13;21.40;89.90
41668;DHT22;27356;50.920;5.350;2023-06-10T00:09:38;21.40;90.00
41668;DHT22;27356;50.920;5.350;2023-06-10T00:12:05;21.20;90.30
41668;DHT22;27356;50.920;5.350;2023-06-10T00:14:39;21.20;90.40
41668;DHT22;27356;50.920;5.350;2023-06-10T00:17:06;21.20;90.40
41668;DHT22;27356;50.920;5.350;2023-06-10T00:19:35;21.10;90.70
41668;DHT22;27356;50.920;5.350;2023-06-10T00:22:01;21.00;90.90
41668;DHT22;27356;50.920;5.350;2023-06-10T00:24:28;21.00;91.00
41668;DHT22;27356;50.920;5.350;2023-06-10T00:26:54;21.00;91.00
41668;DHT22;27356;50.920;5.350;2023-06-10T00:29:20;21.00;91.00
41668;DHT22;27356;50.920;5.350;2023-06-10T00:31:46;20.90;91.00
41668;DHT22;27356;50.920;5.350;2023-06-10T00:34:12;20.90;91.10
41668;DHT22;27356;50.920;5.350;2023-06-10T00:36:38;21.00;91.20
41668;DHT22;27356;50.920;5.350;2023-06-10T00:39:03;20.90;91.20
41668;DHT22;27356;50.920;5.350;2023-06-10T00:41:30;20.90;91.30
41668;DHT22;27356;50.920;5.350;2023-06-10T00:43:56;20.90;91.40
41668;DHT22;27356;50.920;5.350;2023-06-10T00:46:23;20.70;91.60
41668;DHT22;27356;50.920;5.350;2023-06-10T00:48:50;20.70;91.90
41668;DHT22;27356;50.920;5.350;2023-06-10T00:51:17;20.70;91.90
41668;DHT22;27356;50.920;5.350;2023-06-10T00:53:44;20.60;92.00
41668;DHT22;27356;50.920;5.350;2023-06-10T00:56:10;20.60;92.10
41668;DHT22;27356;50.920;5.350;2023-06-10T00:58:36;20.60;92.20
41668;DHT22;27356;50.920;5.350;2023-06-10T01:01:02;20.50;92.50
41668;DHT22;27356;50.920;5.350;2023-06-10T01:03:29;20.40;92.60
41668;DHT22;27356;50.920;5.350;2023-06-10T01:06:09;20.50;92.50
41668;DHT22;27356;50.920;5.350;2023-06-10T01:08:59;20.50;92.60
41668;DHT22;27356;50.920;5.350;2023-06-10T01:11:49;20.40;92.90
41668;DHT22;27356;50.920;5.350;2023-06-10T01:14:17;20.40;93.00
41668;DHT22;27356;50.920;5.350;2023-06-10T01:16:44;20.40;93.10
41668;DHT22;27356;50.920;5.350;2023-06-10T01:19:11;20.40;93.10
41668;DHT22;27356;50.920;5.350;2023-06-10T01:21:38;20.40;93.20
41668;DHT22;27356;50.920;5.350;2023-06-10T01:24:04;20.40;93.20
41668;DHT22;27356;50.920;5.350;2023-06-10T01:26:34;20.30;93.40
41668;DHT22;27356;50.920;5.350;2023-06-10T01:29:09;20.20;93.60
41668;DHT22;27356;50.920;5.350;2023-06-10T01:31:49;20.20;93.70
41668;DHT22;27356;50.920;5.350;2023-06-10T01:34:18;20.10;93.80
41668;DHT22;27356;50.920;5.350;2023-06-10T01:36:48;20.00;94.10
41668;DHT22;27356;50.920;5.350;2023-06-10T01:39:16;20.10;94.20
41668;DHT22;27356;50.920;5.350;2023-06-10T01:41:43;20.10;94.20
41668;DHT22;27356;50.920;5.350;2023-06-10T01:44:09;20.10;94.30
41668;DHT22;27356;50.920;5.350;2023-06-10T01:46:35;20.00;94.40
41668;DHT22;27356;50.920;5.350;2023-06-10T01:49:01;20.00;94.50
41668;DHT22;27356;50.920;5.350;2023-06-10T01:51:26;20.00;94.60
41668;DHT22;27356;50.920;5.350;2023-06-10T01:53:52;19.90;94.60
41668;DHT22;27356;50.920;5.350;2023-06-10T01:56:18;19.90;94.70
41668;DHT22;27356;50.920;5.350;2023-06-10T01:58:45;19.90;94.90
41668;DHT22;27356;50.920;5.350;2023-06-10T02:01:11;19.80;95.10
41668;DHT22;27356;50.920;5.350;2023-06-10T02:03:37;19.70;95.30
41668;DHT22;27356;50.920;5.350;2023-06-10T02:06:03;19.60;95.50
41668;DHT22;27356;50.920;5.350;2023-06-10T02:08:29;19.60;95.60
41668;DHT22;27356;50.920;5.350;2023-06-10T02:10:54;19.60;95.70
41668;DHT22;27356;50.920;5.350;2023-06-10T02:13:20;19.60;95.80
41668;DHT22;27356;50.920;5.350;2023-06-10T02:15:46;19.60;95.80
41668;DHT22;27356;50.920;5.350;2023-06-10T02:18:11;19.60;96.00
41668;DHT22;27356;50.920;5.350;2023-06-10T02:20:38;19.50;96.20
41668;DHT22;27356;50.920;5.350;2023-06-10T02:23:03;19.50;96.20
41668;DHT22;27356;50.920;5.350;2023-06-10T02:25:29;19.60;96.10
41668;DHT22;27356;50.920;5.350;2023-06-10T02:27:55;19.40;96.60
41668;DHT22;27356;50.920;5.350;2023-06-10T02:30:20;19.40;96.70
41668;DHT22;27356;50.920;5.350;2023-06-10T02:32:46;19.40;96.90
41668;DHT22;27356;50.920;5.350;2023-06-10T02:35:14;19.30;97.00
41668;DHT22;27356;50.920;5.350;2023-06-10T02:37:40;19.30;97.10
41668;DHT22;27356;50.920;5.350;2023-06-10T02:40:06;19.30;97.30
41668;DHT22;27356;50.920;5.350;2023-06-10T02:42:32;19.30;97.30
41668;DHT22;27356;50.920;5.350;2023-06-10T02:44:58;19.30;97.30
41668;DHT22;27356;50.920;5.350;2023-06-10T02:47:24;19.30;97.30
41668;DHT22;27356;50.920;5.350;2023-06-10T02:49:50;19.20;97.50
41668;DHT22;27356;50.920;5.350;2023-06-10T02:52:15;19.20;97.60
41668;DHT22;27356;50.920;5.350;2023-06-10T02:54:41;19.10;97.90
41668;DHT22;27356;50.920;5.350;2023-06-10T02:57:07;19.10;98.30
41668;DHT22;27356;50.920;5.350;2023-06-10T02:59:33;19.00;98.20
41668;DHT22;27356;50.920;5.350;2023-06-10T03:01:58;19.00;98.40
41668;DHT22;27356;50.920;5.350;2023-06-10T03:04:26;19.10;98.30
41668;DHT22;27356;50.920;5.350;2023-06-10T03:06:54;19.00;98.30
41668;DHT22;27356;50.920;5.350;2023-06-10T03:09:20;19.00;98.40
41668;DHT22;27356;50.920;5.350;2023-06-10T03:11:46;18.90;98.70
41668;DHT22;27356;50.920;5.350;2023-06-10T03:14:12;18.80;98.90
41668;DHT22;27356;50.920;5.350;2023-06-10T03:16:38;18.80;99.00
41668;DHT22;27356;50.920;5.350;2023-06-10T03:19:08;18.80;99.30
41668;DHT22;27356;50.920;5.350;2023-06-10T03:21:34;18.80;99.30
41668;DHT22;27356;50.920;5.350;2023-06-10T03:24:00;18.90;99.20
41668;DHT22;27356;50.920;5.350;2023-06-10T03:26:27;18.90;99.20
41668;DHT22;27356;50.920;5.350;2023-06-10T03:28:53;18.90;99.10
41668;DHT22;27356;50.920;5.350;2023-06-10T03:31:19;18.90;99.20
41668;DHT22;27356;50.920;5.350;2023-06-10T03:33:44;18.90;99.10
41668;DHT22;27356;50.920;5.350;2023-06-10T03:36:10;18.90;99.20
41668;DHT22;27356;50.920;5.350;2023-06-10T03:38:36;18.90;99.30
41668;DHT22;27356;50.920;5.350;2023-06-10T03:41:02;18.90;99.30
41668;DHT22;27356;50.920;5.350;2023-06-10T03:43:28;19.00;99.30
41668;DHT22;27356;50.920;5.350;2023-06-10T03:45:54;19.00;99.30
41668;DHT22;27356;50.920;5.350;2023-06-10T03:48:19;19.00;99.30
41668;DHT22;27356;50.920;5.350;2023-06-10T03:50:46;18.90;99.50
41668;DHT22;27356;50.920;5.350;2023-06-10T03:53:13;19.00;99.50
41668;DHT22;27356;50.920;5.350;2023-06-10T03:55:39;19.10;99.40
41668;DHT22;27356;50.920;5.350;2023-06-10T03:58:04;19.10;99.40
41668;DHT22;27356;50.920;5.350;2023-06-10T04:00:30;19.20;99.40
41668;DHT22;27356;50.920;5.350;2023-06-10T04:02:56;19.40;99.30
41668;DHT22;27356;50.920;5.350;2023-06-10T04:05:23;19.60;98.70
41668;DHT22;27356;50.920;5.350;2023-06-10T04:07:49;19.90;98.30
41668;DHT22;27356;50.920;5.350;2023-06-10T04:10:15;20.20;98.10
41668;DHT22;27356;50.920;5.350;2023-06-10T04:12:41;20.30;97.10
41668;DHT22;27356;50.920;5.350;2023-06-10T04:15:07;20.60;96.70
41668;DHT22;27356;50.920;5.350;2023-06-10T04:17:34;21.00;96.00
41668;DHT22;27356;50.920;5.350;2023-06-10T04:20:00;21.20;95.50
41668;DHT22;27356;50.920;5.350;2023-06-10T04:22:26;21.30;95.00
41668;DHT22;27356;50.920;5.350;2023-06-10T04:24:52;21.70;94.40
41668;DHT22;27356;50.920;5.350;2023-06-10T04:27:18;22.00;93.80
41668;DHT22;27356;50.920;5.350;2023-06-10T04:29:44;22.10;93.50
41668;DHT22;27356;50.920;5.350;2023-06-10T04:32:09;22.40;93.20
41668;DHT22;27356;50.920;5.350;2023-06-10T04:34:36;22.60;92.70
41668;DHT22;27356;50.920;5.350;2023-06-10T04:37:02;22.80;92.10
41668;DHT22;27356;50.920;5.350;2023-06-10T04:39:28;23.00;91.80
41668;DHT22;27356;50.920;5.350;2023-06-10T04:41:53;23.30;91.20
41668;DHT22;27356;50.920;5.350;2023-06-10T04:44:19;23.40;91.00
41668;DHT22;27356;50.920;5.350;2023-06-10T04:46:45;23.70;90.80
41668;DHT22;27356;50.920;5.350;2023-06-10T04:49:11;23.80;90.30
41668;DHT22;27356;50.920;5.350;2023-06-10T04:51:38;23.80;90.60
41668;DHT22;27356;50.920;5.350;2023-06-10T04:54:04;23.80;90.40
41668;DHT22;27356;50.920;5.350;2023-06-10T04:56:30;24.30;90.00
41668;DHT22;27356;50.920;5.350;2023-06-10T04:58:57;24.60;89.10
41668;DHT22;27356;50.920;5.350;2023-06-10T05:01:23;25.10;87.80
41668;DHT22;27356;50.920;5.350;2023-06-10T05:03:48;25.40;86.90
41668;DHT22;27356;50.920;5.350;2023-06-10T05:06:14;25.40;86.90
41668;DHT22;27356;50.920;5.350;2023-06-10T05:08:40;25.50;86.50
41668;DHT22;27356;50.920;5.350;2023-06-10T05:11:06;25.80;86.00
41668;DHT22;27356;50.920;5.350;2023-06-10T05:13:32;26.30;84.80
41668;DHT22;27356;50.920;5.350;2023-06-10T05:15:58;26.30;84.70
41668;DHT22;27356;50.920;5.350;2023-06-10T05:18:24;26.40;84.30
41668;DHT22;27356;50.920;5.350;2023-06-10T05:20:49;26.80;83.60
41668;DHT22;27356;50.920;5.350;2023-06-10T05:23:15;27.30;82.40
41668;DHT22;27356;50.920;5.350;2023-06-10T05:25:40;27.70;81.20
41668;DHT22;27356;50.920;5.350;2023-06-10T05:28:07;28.00;80.40
41668;DHT22;27356;50.920;5.350;2023-06-10T05:30:35;28.10;80.30
41668;DHT22;27356;50.920;5.350;2023-06-10T05:33:02;28.40;79.50
41668;DHT22;27356;50.920;5.350;2023-06-10T05:35:28;28.50;78.90
41668;DHT22;27356;50.920;5.350;2023-06-10T05:37:54;28.50;78.90
41668;DHT22;27356;50.920;5.350;2023-06-10T05:40:20;28.70;78.70
41668;DHT22;27356;50.920;5.350;2023-06-10T05:42:45;28.80;78.20
41668;DHT22;27356;50.920;5.350;2023-06-10T05:45:11;29.40;77.80
41668;DHT22;27356;50.920;5.350;2023-06-10T05:47:37;29.80;77.20
41668;DHT22;27356;50.920;5.350;2023-06-10T05:50:03;30.20;76.60
41668;DHT22;27356;50.920;5.350;2023-06-10T05:52:35;30.50;75.50
41668;DHT22;27356;50.920;5.350;2023-06-10T05:55:02;30.70;74.60
41668;DHT22;27356;50.920;5.350;2023-06-10T05:57:28;31.20;74.10
41668;DHT22;27356;50.920;5.350;2023-06-10T05:59:54;31.20;73.30
41668;DHT22;27356;50.920;5.350;2023-06-10T06:02:19;31.10;73.30
41668;DHT22;27356;50.920;5.350;2023-06-10T06:04:45;31.10;73.20
41668;DHT22;27356;50.920;5.350;2023-06-10T06:07:11;31.10;73.00
41668;DHT22;27356;50.920;5.350;2023-06-10T06:09:37;31.40;72.10
41668;DHT22;27356;50.920;5.350;2023-06-10T06:12:03;31.40;72.10
41668;DHT22;27356;50.920;5.350;2023-06-10T06:14:30;31.30;72.70
41668;DHT22;27356;50.920;5.350;2023-06-10T06:16:57;31.50;71.90
41668;DHT22;27356;50.920;5.350;2023-06-10T06:19:22;31.30;71.70
41668;DHT22;27356;50.920;5.350;2023-06-10T06:21:48;31.20;71.80
41668;DHT22;27356;50.920;5.350;2023-06-10T06:24:15;31.40;71.80
41668;DHT22;27356;50.920;5.350;2023-06-10T06:26:41;31.50;70.50
41668;DHT22;27356;50.920;5.350;2023-06-10T06:29:07;31.40;70.30
41668;DHT22;27356;50.920;5.350;2023-06-10T06:31:33;31.50;69.90
41668;DHT22;27356;50.920;5.350;2023-06-10T06:33:59;31.60;69.80
41668;DHT22;27356;50.920;5.350;2023-06-10T06:36:24;31.40;69.70
41668;DHT22;27356;50.920;5.350;2023-06-10T06:38:50;31.70;69.50
41668;DHT22;27356;50.920;5.350;2023-06-10T06:41:16;31.90;68.70
41668;DHT22;27356;50.920;5.350;2023-06-10T06:43:42;31.90;68.20
41668;DHT22;27356;50.920;5.350;2023-06-10T06:46:09;31.20;69.20
41668;DHT22;27356;50.920;5.350;2023-06-10T06:48:35;31.20;70.10
41668;DHT22;27356;50.920;5.350;2023-06-10T06:51:01;31.60;69.80
41668;DHT22;27356;50.920;5.350;2023-06-10T06:53:27;32.10;68.90
41668;DHT22;27356;50.920;5.350;2023-06-10T06:55:52;32.50;68.60
41668;DHT22;27356;50.920;5.350;2023-06-10T06:58:18;32.80;68.50
41668;DHT22;27356;50.920;5.350;2023-06-10T07:00:44;33.20;67.90
41668;DHT22;27356;50.920;5.350;2023-06-10T07:03:10;33.50;67.20
41668;DHT22;27356;50.920;5.350;2023-06-10T07:05:37;33.70;67.40
41668;DHT22;27356;50.920;5.350;2023-06-10T07:08:04;33.80;67.10
41668;DHT22;27356;50.920;5.350;2023-06-10T07:10:30;34.10;66.40
41668;DHT22;27356;50.920;5.350;2023-06-10T07:12:56;34.20;65.80
41668;DHT22;27356;50.920;5.350;2023-06-10T07:15:22;34.00;65.40
41668;DHT22;27356;50.920;5.350;2023-06-10T07:17:47;34.10;64.80
41668;DHT22;27356;50.920;5.350;2023-06-10T07:20:13;34.00;65.30
41668;DHT22;27356;50.920;5.350;2023-06-10T07:22:41;33.80;65.20
41668;DHT22;27356;50.920;5.350;2023-06-10T07:25:07;34.10;65.20
41668;DHT22;27356;50.920;5.350;2023-06-10T07:27:34;34.70;65.10
41668;DHT22;27356;50.920;5.350;2023-06-10T07:30:01;33.90;65.70
41668;DHT22;27356;50.920;5.350;2023-06-10T07:32:27;34.60;65.40
41668;DHT22;27356;50.920;5.350;2023-06-10T07:34:53;35.10;65.40
41668;DHT22;27356;50.920;5.350;2023-06-10T07:37:19;34.80;65.00
41668;DHT22;27356;50.920;5.350;2023-06-10T07:39:45;35.20;64.60
41668;DHT22;27356;50.920;5.350;2023-06-10T07:42:11;35.50;63.90
41668;DHT22;27356;50.920;5.350;2023-06-10T07:44:37;35.60;64.00
41668;DHT22;27356;50.920;5.350;2023-06-10T07:47:03;35.50;63.70
41668;DHT22;27356;50.920;5.350;2023-06-10T07:49:29;35.50;64.10
41668;DHT22;27356;50.920;5.350;2023-06-10T07:52:06;35.50;64.10
41668;DHT22;27356;50.920;5.350;2023-06-10T07:54:33;35.30;64.10
41668;DHT22;27356;50.920;5.350;2023-06-10T07:56:59;35.60;63.90
41668;DHT22;27356;50.920;5.350;2023-06-10T07:59:24;35.60;63.90
41668;DHT22;27356;50.920;5.350;2023-06-10T08:01:52;35.90;63.60
41668;DHT22;27356;50.920;5.350;2023-06-10T08:04:18;36.00;64.10
41668;DHT22;27356;50.920;5.350;2023-06-10T08:06:44;36.50;63.50
41668;DHT22;27356;50.920;5.350;2023-06-10T08:09:10;36.60;62.60
41668;DHT22;27356;50.920;5.350;2023-06-10T08:11:36;36.40;63.20
41668;DHT22;27356;50.920;5.350;2023-06-10T08:14:02;36.70;62.70
41668;DHT22;27356;50.920;5.350;2023-06-10T08:16:27;37.40;62.10
41668;DHT22;27356;50.920;5.350;2023-06-10T08:18:53;37.90;60.90
41668;DHT22;27356;50.920;5.350;2023-06-10T08:21:19;37.80;61.70
41668;DHT22;27356;50.920;5.350;2023-06-10T08:23:45;37.50;61.50
41668;DHT22;27356;50.920;5.350;2023-06-10T08:26:10;37.40;61.30
41668;DHT22;27356;50.920;5.350;2023-06-10T08:28:36;37.40;61.20
41668;DHT22;27356;50.920;5.350;2023-06-10T08:31:02;37.40;60.90
41668;DHT22;27356;50.920;5.350;2023-06-10T08:33:28;37.50;61.40
41668;DHT22;27356;50.920;5.350;2023-06-10T08:35:53;37.80;60.80
41668;DHT22;27356;50.920;5.350;2023-06-10T08:38:19;37.50;60.90
41668;DHT22;27356;50.920;5.350;2023-06-10T08:40:45;37.30;61.60
41668;DHT22;27356;50.920;5.350;2023-06-10T08:46:00;37.80;61.30
41668;DHT22;27356;50.920;5.350;2023-06-10T08:48:29;38.30;60.30
41668;DHT22;27356;50.920;5.350;2023-06-10T08:50:57;37.90;60.10
41668;DHT22;27356;50.920;5.350;2023-06-10T08:53:24;37.60;60.20
41668;DHT22;27356;50.920;5.350;2023-06-10T08:55:53;37.00;60.80
41668;DHT22;27356;50.920;5.350;2023-06-10T08:58:20;36.70;61.10
41668;DHT22;27356;50.920;5.350;2023-06-10T09:00:46;37.40;61.50
41668;DHT22;27356;50.920;5.350;2023-06-10T09:03:12;38.00;59.90
41668;DHT22;27356;50.920;5.350;2023-06-10T09:05:39;38.30;60.10
41668;DHT22;27356;50.920;5.350;2023-06-10T09:08:08;38.00;60.80
41668;DHT22;27356;50.920;5.350;2023-06-10T09:10:34;38.10;60.90
41668;DHT22;27356;50.920;5.350;2023-06-10T09:13:00;37.80;60.40
41668;DHT22;27356;50.920;5.350;2023-06-10T09:15:27;38.00;60.80
41668;DHT22;27356;50.920;5.350;2023-06-10T09:17:53;38.80;59.60
41668;DHT22;27356;50.920;5.350;2023-06-10T09:20:19;38.90;59.60
41668;DHT22;27356;50.920;5.350;2023-06-10T09:22:44;38.80;58.80
41668;DHT22;27356;50.920;5.350;2023-06-10T09:25:12;38.30;58.00
41668;DHT22;27356;50.920;5.350;2023-06-10T09:27:50;38.20;58.00
41668;DHT22;27356;50.920;5.350;2023-06-10T09:30:29;37.60;59.60
41668;DHT22;27356;50.920;5.350;2023-06-10T09:32:57;37.70;59.00
41668;DHT22;27356;50.920;5.350;2023-06-10T09:35:23;37.20;59.30
41668;DHT22;27356;50.920;5.350;2023-06-10T09:37:54;37.20;59.30
41668;DHT22;27356;50.920;5.350;2023-06-10T09:40:21;36.70;58.80
41668;DHT22;27356;50.920;5.350;2023-06-10T09:42:58;36.40;59.70
41668;DHT22;27356;50.920;5.350;2023-06-10T09:45:30;36.50;58.50
41668;DHT22;27356;50.920;5.350;2023-06-10T09:47:59;36.90;59.10
41668;DHT22;27356;50.920;5.350;2023-06-10T09:50:25;36.80;59.00
41668;DHT22;27356;50.920;5.350;2023-06-10T09:52:52;36.70;58.50
41668;DHT22;27356;50.920;5.350;2023-06-10T09:55:18;36.50;58.80
41668;DHT22;27356;50.920;5.350;2023-06-10T09:57:44;36.60;57.40
41668;DHT22;27356;50.920;5.350;2023-06-10T10:00:14;36.30;58.30
41668;DHT22;27356;50.920;5.350;2023-06-10T10:03:06;35.90;58.50
41668;DHT22;27356;50.920;5.350;2023-06-10T10:05:32;35.40;58.90
41668;DHT22;27356;50.920;5.350;2023-06-10T10:07:58;35.30;59.10
41668;DHT22;27356;50.920;5.350;2023-06-10T10:10:24;35.00;59.50
41668;DHT22;27356;50.920;5.350;2023-06-10T10:12:54;35.20;60.20
41668;DHT22;27356;50.920;5.350;2023-06-10T10:15:28;34.50;60.00
41668;DHT22;27356;50.920;5.350;2023-06-10T10:18:07;34.40;59.40
41668;DHT22;27356;50.920;5.350;2023-06-10T10:20:40;34.20;60.70
41668;DHT22;27356;50.920;5.350;2023-06-10T10:23:10;33.80;59.30
41668;DHT22;27356;50.920;5.350;2023-06-10T10:25:40;33.20;59.10
41668;DHT22;27356;50.920;5.350;2023-06-10T10:28:13;33.10;61.10
41668;DHT22;27356;50.920;5.350;2023-06-10T10:30:42;32.80;58.70
41668;DHT22;27356;50.920;5.350;2023-06-10T10:33:23;32.70;60.40
41668;DHT22;27356;50.920;5.350;2023-06-10T10:35:53;32.50;60.00
41668;DHT22;27356;50.920;5.350;2023-06-10T10:38:19;32.60;60.00
41668;DHT22;27356;50.920;5.350;2023-06-10T10:40:47;32.40;60.60
41668;DHT22;27356;50.920;5.350;2023-06-10T10:43:13;31.90;60.50
41668;DHT22;27356;50.920;5.350;2023-06-10T10:45:40;31.80;60.00
41668;DHT22;27356;50.920;5.350;2023-06-10T10:48:08;31.50;62.00
41668;DHT22;27356;50.920;5.350;2023-06-10T10:50:38;31.40;62.00
41668;DHT22;27356;50.920;5.350;2023-06-10T10:53:05;31.50;61.00
41668;DHT22;27356;50.920;5.350;2023-06-10T10:55:32;31.70;60.90
41668;DHT22;27356;50.920;5.350;2023-06-10T10:58:06;31.90;61.30
41668;DHT22;27356;50.920;5.350;2023-06-10T11:00:37;31.80;62.10
41668;DHT22;27356;50.920;5.350;2023-06-10T11:08:02;31.40;58.90
41668;DHT22;27356;50.920;5.350;2023-06-10T11:10:38;31.50;59.20
41668;DHT22;27356;50.920;5.350;2023-06-10T11:13:14;31.70;58.30
41668;DHT22;27356;50.920;5.350;2023-06-10T11:15:45;31.70;58.80
41668;DHT22;27356;50.920;5.350;2023-06-10T11:18:23;31.50;59.90
41668;DHT22;27356;50.920;5.350;2023-06-10T11:20:57;31.50;61.60
41668;DHT22;27356;50.920;5.350;2023-06-10T11:31:33;31.70;60.20
41668;DHT22;27356;50.920;5.350;2023-06-10T11:34:04;31.80;59.70
41668;DHT22;27356;50.920;5.350;2023-06-10T11:36:31;31.60;60.70
41668;DHT22;27356;50.920;5.350;2023-06-10T11:39:00;31.30;59.90
41668;DHT22;27356;50.920;5.350;2023-06-10T11:41:27;31.30;61.00
41668;DHT22;27356;50.920;5.350;2023-06-10T11:44:18;31.50;60.00
41668;DHT22;27356;50.920;5.350;2023-06-10T11:46:44;31.40;56.40
41668;DHT22;27356;50.920;5.350;2023-06-10T11:49:11;30.90;58.30
41668;DHT22;27356;50.920;5.350;2023-06-10T11:51:41;30.60;58.10
41668;DHT22;27356;50.920;5.350;2023-06-10T11:54:14;30.60;58.60
41668;DHT22;27356;50.920;5.350;2023-06-10T11:56:40;30.70;57.80
41668;DHT22;27356;50.920;5.350;2023-06-10T11:59:06;30.70;57.80
41668;DHT22;27356;50.920;5.350;2023-06-10T12:01:35;30.80;57.50
41668;DHT22;27356;50.920;5.350;2023-06-10T12:04:07;30.90;58.10
41668;DHT22;27356;50.920;5.350;2023-06-10T12:06:43;30.90;56.40
41668;DHT22;27356;50.920;5.350;2023-06-10T12:09:28;30.80;57.90
41668;DHT22;27356;50.920;5.350;2023-06-10T12:12:04;30.80;57.50
41668;DHT22;27356;50.920;5.350;2023-06-10T12:14:57;30.70;56.40
41668;DHT22;27356;50.920;5.350;2023-06-10T12:19:56;30.70;57.90
41668;DHT22;27356;50.920;5.350;2023-06-10T12:22:23;30.70;57.40
41668;DHT22;27356;50.920;5.350;2023-06-10T12:25:01;30.70;57.10
41668;DHT22;27356;50.920;5.350;2023-06-10T12:27:29;30.70;57.60
41668;DHT22;27356;50.920;5.350;2023-06-10T12:29:56;30.50;58.10
41668;DHT22;27356;50.920;5.350;2023-06-10T12:32:44;30.50;59.40
41668;DHT22;27356;50.920;5.350;2023-06-10T12:35:22;30.50;59.20
41668;DHT22;27356;50.920;5.350;2023-06-10T12:38:03;30.40;59.70
41668;DHT22;27356;50.920;5.350;2023-06-10T12:40:39;30.50;58.60
41668;DHT22;27356;50.920;5.350;2023-06-10T12:43:06;30.50;57.20
41668;DHT22;27356;50.920;5.350;2023-06-10T12:45:36;30.40;57.90
41668;DHT22;27356;50.920;5.350;2023-06-10T12:50:55;30.50;59.50
41668;DHT22;27356;50.920;5.350;2023-06-10T12:53:21;30.60;57.30
41668;DHT22;27356;50.920;5.350;2023-06-10T12:55:54;30.50;59.00
41668;DHT22;27356;50.920;5.350;2023-06-10T12:58:20;30.40;60.60
41668;DHT22;27356;50.920;5.350;2023-06-10T13:00:47;30.50;60.00
41668;DHT22;27356;50.920;5.350;2023-06-10T13:03:14;30.30;58.80
41668;DHT22;27356;50.920;5.350;2023-06-10T13:05:40;30.40;59.70
41668;DHT22;27356;50.920;5.350;2023-06-10T13:08:07;30.60;59.20
41668;DHT22;27356;50.920;5.350;2023-06-10T13:10:33;30.70;59.40
41668;DHT22;27356;50.920;5.350;2023-06-10T13:13:03;30.70;57.90
41668;DHT22;27356;50.920;5.350;2023-06-10T13:15:32;30.60;58.10
41668;DHT22;27356;50.920;5.350;2023-06-10T13:18:04;30.60;59.00
41668;DHT22;27356;50.920;5.350;2023-06-10T13:20:30;30.60;59.70
41668;DHT22;27356;50.920;5.350;2023-06-10T13:22:56;30.70;58.20
41668;DHT22;27356;50.920;5.350;2023-06-10T13:25:22;30.80;57.90
41668;DHT22;27356;50.920;5.350;2023-06-10T13:27:48;30.60;59.50
41668;DHT22;27356;50.920;5.350;2023-06-10T13:30:14;30.60;59.30
41668;DHT22;27356;50.920;5.350;2023-06-10T13:32:40;30.50;59.10
41668;DHT22;27356;50.920;5.350;2023-06-10T13:35:06;30.50;57.90
41668;DHT22;27356;50.920;5.350;2023-06-10T13:37:33;30.50;58.10
41668;DHT22;27356;50.920;5.350;2023-06-10T13:40:00;30.60;56.80
41668;DHT22;27356;50.920;5.350;2023-06-10T13:42:26;30.40;58.00
41668;DHT22;27356;50.920;5.350;2023-06-10T13:44:52;30.40;58.70
41668;DHT22;27356;50.920;5.350;2023-06-10T13:47:17;30.40;60.20
41668;DHT22;27356;50.920;5.350;2023-06-10T13:49:43;30.40;59.60
41668;DHT22;27356;50.920;5.350;2023-06-10T13:52:09;30.50;60.20
41668;DHT22;27356;50.920;5.350;2023-06-10T13:54:35;30.70;61.00
41668;DHT22;27356;50.920;5.350;2023-06-10T13:57:04;30.70;59.20
41668;DHT22;27356;50.920;5.350;2023-06-10T13:59:30;30.70;59.20
41668;DHT22;27356;50.920;5.350;2023-06-10T14:01:56;30.70;58.20
41668;DHT22;27356;50.920;5.350;2023-06-10T14:04:22;30.70;57.10
41668;DHT22;27356;50.920;5.350;2023-06-10T14:06:48;30.50;56.30
41668;DHT22;27356;50.920;5.350;2023-06-10T14:09:14;30.50;56.70
41668;DHT22;27356;50.920;5.350;2023-06-10T14:11:40;30.60;57.40
41668;DHT22;27356;50.920;5.350;2023-06-10T14:14:05;30.50;57.20
41668;DHT22;27356;50.920;5.350;2023-06-10T14:16:32;30.40;56.10
41668;DHT22;27356;50.920;5.350;2023-06-10T14:18:57;30.50;56.70
41668;DHT22;27356;50.920;5.350;2023-06-10T14:21:23;30.40;57.00
41668;DHT22;27356;50.920;5.350;2023-06-10T14:24:01;30.50;56.80
41668;DHT22;27356;50.920;5.350;2023-06-10T14:26:27;30.60;56.50
41668;DHT22;27356;50.920;5.350;2023-06-10T14:28:53;30.60;58.10
41668;DHT22;27356;50.920;5.350;2023-06-10T14:31:19;30.60;58.00
41668;DHT22;27356;50.920;5.350;2023-06-10T14:33:45;30.60;58.10
41668;DHT22;27356;50.920;5.350;2023-06-10T14:36:12;30.70;57.70
41668;DHT22;27356;50.920;5.350;2023-06-10T14:38:38;30.70;57.00
41668;DHT22;27356;50.920;5.350;2023-06-10T14:41:03;30.70;57.40
41668;DHT22;27356;50.920;5.350;2023-06-10T14:43:29;30.50;57.90
41668;DHT22;27356;50.920;5.350;2023-06-10T14:45:55;30.50;58.00
41668;DHT22;27356;50.920;5.350;2023-06-10T14:48:21;30.30;58.90
41668;DHT22;27356;50.920;5.350;2023-06-10T14:50:47;30.50;58.00
41668;DHT22;27356;50.920;5.350;2023-06-10T14:53:17;30.60;57.90
41668;DHT22;27356;50.920;5.350;2023-06-10T14:55:43;30.70;57.90
41668;DHT22;27356;50.920;5.350;2023-06-10T14:58:09;30.60;58.30
41668;DHT22;27356;50.920;5.350;2023-06-10T15:00:35;30.50;58.30
41668;DHT22;27356;50.920;5.350;2023-06-10T15:03:01;30.50;58.80
41668;DHT22;27356;50.920;5.350;2023-06-10T15:05:28;30.70;58.10
41668;DHT22;27356;50.920;5.350;2023-06-10T15:07:54;30.70;58.10
41668;DHT22;27356;50.920;5.350;2023-06-10T15:10:20;30.80;57.40
41668;DHT22;27356;50.920;5.350;2023-06-10T15:12:47;30.70;57.40
41668;DHT22;27356;50.920;5.350;2023-06-10T15:15:13;30.90;58.00
41668;DHT22;27356;50.920;5.350;2023-06-10T15:17:39;31.00;59.10
41668;DHT22;27356;50.920;5.350;2023-06-10T15:20:05;31.10;59.30
41668;DHT22;27356;50.920;5.350;2023-06-10T15:22:31;31.00;59.80
41668;DHT22;27356;50.920;5.350;2023-06-10T15:24:57;30.90;61.20
41668;DHT22;27356;50.920;5.350;2023-06-10T15:27:23;30.80;61.20
41668;DHT22;27356;50.920;5.350;2023-06-10T15:29:49;30.70;61.00
41668;DHT22;27356;50.920;5.350;2023-06-10T15:32:15;30.70;61.30
41668;DHT22;27356;50.920;5.350;2023-06-10T15:34:40;30.60;61.20
41668;DHT22;27356;50.920;5.350;2023-06-10T15:37:06;30.60;61.20
41668;DHT22;27356;50.920;5.350;2023-06-10T15:39:32;30.40;61.50
41668;DHT22;27356;50.920;5.350;2023-06-10T15:41:58;30.30;61.40
41668;DHT22;27356;50.920;5.350;2023-06-10T15:44:24;30.30;61.80
41668;DHT22;27356;50.920;5.350;2023-06-10T15:46:50;30.30;61.40
41668;DHT22;27356;50.920;5.350;2023-06-10T15:49:16;30.20;62.20
41668;DHT22;27356;50.920;5.350;2023-06-10T15:51:41;30.20;61.70
41668;DHT22;27356;50.920;5.350;2023-06-10T15:54:07;30.30;62.00